Time;durP1;ratioP1;P1;durP2;ratioP2;P2;SDS_P1;SDS_P2;PMS_P1;PMS_P2;Temp;Humidity;BMP_temperature;BMP_pressure;BME280_temperature;BME280_humidity;BME280_pressure;Samples;Min_cycle;Max_cycle;Signal;HPM_P1;HPM_P2
2022/06/15 00:00:32;;;;;;;9.07;1.90;;;13.70;1.00;;;;;;5042671;28;20181;-79
2022/06/15 00:02:57;;;;;;;5.67;1.60;;;13.70;1.00;;;;;;5040993;28;20180;-80
2022/06/15 00:05:23;;;;;;;4.13;1.60;;;13.70;1.00;;;;;;5042237;28;20204;-79
2022/06/15 00:07:49;;;;;;;6.13;1.90;;;13.70;99.90;;;;;;5041754;28;20169;-80
2022/06/15 00:10:14;;;;;;;3.63;1.47;;;13.70;21.90;;;;;;5044542;28;20172;-80
2022/06/15 00:12:40;;;;;;;3.50;1.70;;;13.70;99.90;;;;;;5048005;28;20183;-80
2022/06/15 00:15:07;;;;;;;5.33;2.20;;;13.70;99.90;;;;;;5045429;28;20177;-79
2022/06/15 00:17:33;;;;;;;6.17;1.80;;;13.60;1.00;;;;;;5045010;28;20204;-79
2022/06/15 00:19:58;;;;;;;4.33;1.97;;;13.60;1.00;;;;;;5045701;28;20199;-80
2022/06/15 00:22:24;;;;;;;5.93;1.97;;;13.60;1.00;;;;;;5045724;28;20211;-79
2022/06/15 00:24:49;;;;;;;4.43;1.70;;;13.60;1.00;;;;;;5044913;28;20234;-79
2022/06/15 00:27:15;;;;;;;6.57;1.60;;;13.60;30.70;;;;;;5045437;28;20204;-80
2022/06/15 00:29:40;;;;;;;5.63;1.87;;;13.60;1.00;;;;;;5045845;28;20745;-79
2022/06/15 00:32:06;;;;;;;3.17;1.60;;;13.50;1.00;;;;;;5047583;28;20188;-80
2022/06/15 00:34:32;;;;;;;4.70;1.43;;;13.50;1.00;;;;;;5046582;28;20172;-79
2022/06/15 00:36:58;;;;;;;4.00;1.63;;;13.50;1.00;;;;;;5045916;28;20204;-79
2022/06/15 00:39:23;;;;;;;4.53;1.60;;;13.50;1.00;;;;;;5045713;28;20172;-79
2022/06/15 00:41:49;;;;;;;3.20;1.80;;;13.50;21.80;;;;;;5044720;28;20180;-81
2022/06/15 00:44:26;;;;;;;3.43;1.57;;;13.50;99.90;;;;;;5045317;28;20546;-80
2022/06/15 00:47:14;;;;;;;4.00;1.63;;;13.50;99.90;;;;;;5044186;28;20693;-80
2022/06/15 00:49:56;;;;;;;2.97;1.67;;;13.50;98.70;;;;;;5032517;28;20245;-78
2022/06/15 00:52:32;;;;;;;3.03;1.87;;;13.50;1.00;;;;;;5042889;28;20254;-80
2022/06/15 00:54:58;;;;;;;10.43;1.57;;;13.40;1.00;;;;;;5044729;28;20157;-80
2022/06/15 00:57:25;;;;;;;7.17;2.00;;;13.40;99.90;;;;;;5045035;28;20200;-80
2022/06/15 00:59:57;;;;;;;3.73;1.33;;;13.40;99.90;;;;;;5045157;28;20176;-80
2022/06/15 01:02:24;;;;;;;2.97;1.77;;;13.30;99.90;;;;;;5044717;28;20179;-79
2022/06/15 01:05:03;;;;;;;5.13;1.67;;;13.30;99.90;;;;;;5043424;28;20183;-80
2022/06/15 01:07:56;;;;;;;4.27;1.90;;;13.20;99.90;;;;;;5042574;28;20246;-80
2022/06/15 01:10:43;;;;;;;3.43;1.57;;;13.30;99.90;;;;;;5043056;28;20232;-79
2022/06/15 01:13:32;;;;;;;5.40;1.87;;;13.20;99.90;;;;;;5044239;28;20232;-79
2022/06/15 01:16:25;;;;;;;6.27;1.50;;;13.20;99.90;;;;;;5042464;28;20220;-80
2022/06/15 01:19:20;;;;;;;5.07;1.80;;;13.30;99.90;;;;;;5045720;28;20191;-80
2022/06/15 01:22:22;;;;;;;6.13;2.10;;;13.30;1.00;;;;;;5045018;28;20161;-79
2022/06/15 01:25:10;;;;;;;5.20;2.20;;;13.20;99.90;;;;;;5043962;28;20255;-78
2022/06/15 01:28:04;;;;;;;3.27;1.93;;;13.20;99.90;;;;;;5043873;28;20216;-79
2022/06/15 01:30:46;;;;;;;3.13;1.80;;;13.10;99.90;;;;;;5044802;28;20164;-78
2022/06/15 01:33:33;;;;;;;5.63;1.80;;;13.10;99.90;;;;;;5044857;28;20157;-80
2022/06/15 01:36:04;;;;;;;7.33;1.90;;;13.10;1.00;;;;;;5045218;28;20192;-80
2022/06/15 01:38:49;;;;;;;3.33;1.70;;;13.00;1.00;;;;;;5045776;28;20203;-80
2022/06/15 01:41:14;;;;;;;3.50;1.97;;;13.00;1.00;;;;;;5043387;28;20173;-80
2022/06/15 01:44:13;;;;;;;6.57;1.80;;;13.00;1.00;;;;;;5044956;28;20642;-80
2022/06/15 01:46:41;;;;;;;2.77;2.20;;;12.90;1.00;;;;;;5042000;28;20246;-80
2022/06/15 01:49:14;;;;;;;4.33;1.90;;;12.90;1.00;;;;;;5045873;28;20204;-80
2022/06/15 01:51:43;;;;;;;4.30;1.60;;;12.90;1.00;;;;;;5045062;28;20157;-80
2022/06/15 01:54:22;;;;;;;3.67;1.73;;;12.80;12.00;;;;;;5046035;28;20511;-80
2022/06/15 01:56:52;;;;;;;4.80;1.90;;;12.80;66.70;;;;;;5045462;28;20654;-80
2022/06/15 01:59:23;;;;;;;3.63;1.90;;;12.80;99.90;;;;;;5045026;28;20693;-80
2022/06/15 02:02:13;;;;;;;4.50;1.80;;;12.80;99.90;;;;;;5047026;28;20207;-79
2022/06/15 02:04:50;;;;;;;5.13;2.00;;;12.80;99.90;;;;;;5046290;28;20160;-80
2022/06/15 02:07:28;;;;;;;3.20;1.97;;;12.70;99.90;;;;;;5045059;28;20593;-80
2022/06/15 02:10:08;;;;;;;4.97;1.80;;;12.70;99.90;;;;;;5045914;28;20263;-79
2022/06/15 02:12:39;;;;;;;4.13;1.57;;;12.70;99.90;;;;;;5044411;28;20173;-79
2022/06/15 02:15:08;;;;;;;2.80;1.53;;;12.60;99.90;;;;;;5046259;28;20169;-80
2022/06/15 02:17:39;;;;;;;7.33;2.13;;;12.60;99.90;;;;;;5046380;28;20689;-79
2022/06/15 02:20:20;;;;;;;4.17;1.77;;;12.50;99.90;;;;;;5048191;28;20157;-79
2022/06/15 02:22:49;;;;;;;3.80;1.90;;;12.60;99.90;;;;;;5051711;28;20151;-77
2022/06/15 02:25:17;;;;;;;5.97;2.20;;;12.60;99.90;;;;;;5057535;28;20196;-79
2022/06/15 02:27:44;;;;;;;2.30;1.67;;;12.20;99.90;;;;;;5052464;28;20183;-79
2022/06/15 02:30:25;;;;;;;7.70;1.90;;;12.50;99.90;;;;;;5042815;28;20295;-80
2022/06/15 02:32:51;;;;;;;2.90;1.80;;;12.50;99.90;;;;;;5041515;28;20161;-79
2022/06/15 02:35:18;;;;;;;6.07;1.90;;;12.40;99.90;;;;;;5044210;28;20180;-78
2022/06/15 02:37:46;;;;;;;5.33;1.90;;;12.40;99.90;;;;;;5043014;28;20702;-78
2022/06/15 02:40:18;;;;;;;2.70;1.97;;;12.40;99.90;;;;;;5042809;28;20184;-79
2022/06/15 02:42:47;;;;;;;4.27;1.73;;;12.40;99.90;;;;;;5042062;28;20173;-78
2022/06/15 02:45:28;;;;;;;3.60;1.87;;;12.30;99.90;;;;;;5040383;28;20294;-79
2022/06/15 02:47:55;;;;;;;5.80;1.87;;;12.30;99.90;;;;;;5039709;28;20173;-79
2022/06/15 02:50:23;;;;;;;8.90;2.23;;;12.30;99.90;;;;;;5042546;28;20206;-79
2022/06/15 02:53:01;;;;;;;5.10;2.03;;;12.30;99.90;;;;;;5040298;28;20633;-79
2022/06/15 02:55:27;;;;;;;5.30;2.00;;;12.30;99.90;;;;;;5040459;28;20727;-79
2022/06/15 02:58:09;;;;;;;5.30;1.90;;;12.20;99.90;;;;;;5042762;28;20180;-79
2022/06/15 03:00:37;;;;;;;4.70;1.93;;;12.20;99.90;;;;;;5041292;28;20230;-78
2022/06/15 03:03:03;;;;;;;3.77;1.90;;;12.20;99.90;;;;;;5044010;28;20176;-78
2022/06/15 03:05:28;;;;;;;3.60;1.90;;;12.10;99.90;;;;;;5045191;28;20230;-79
2022/06/15 03:07:54;;;;;;;4.50;2.17;;;12.10;99.90;;;;;;5042733;28;20165;-78
2022/06/15 03:10:20;;;;;;;5.50;2.23;;;12.00;99.90;;;;;;5040583;28;20717;-78
2022/06/15 03:12:45;;;;;;;5.40;1.67;;;12.00;99.90;;;;;;5043312;28;20168;-78
2022/06/15 03:15:11;;;;;;;2.13;1.70;;;12.00;99.90;;;;;;5042742;28;20210;-79
2022/06/15 03:17:37;;;;;;;2.40;1.97;;;12.00;99.90;;;;;;5042817;28;20200;-79
2022/06/15 03:20:03;;;;;;;2.43;2.07;;;12.00;99.90;;;;;;5042921;28;20178;-79
2022/06/15 03:22:32;;;;;;;3.47;2.00;;;11.90;99.90;;;;;;5043270;28;20176;-79
2022/06/15 03:24:58;;;;;;;3.40;2.23;;;11.90;99.90;;;;;;5041308;28;20180;-78
2022/06/15 03:27:23;;;;;;;3.57;1.53;;;11.90;99.90;;;;;;5043546;28;20204;-79
2022/06/15 03:29:50;;;;;;;6.67;2.10;;;11.90;99.90;;;;;;5043105;28;20175;-79
2022/06/15 03:32:16;;;;;;;3.50;1.80;;;11.90;99.90;;;;;;5041917;28;20174;-79
2022/06/15 03:34:42;;;;;;;3.00;1.90;;;11.90;99.90;;;;;;5043815;28;20179;-79
2022/06/15 03:37:08;;;;;;;3.70;2.17;;;11.90;99.90;;;;;;5042941;28;20227;-79
2022/06/15 03:39:33;;;;;;;3.27;1.93;;;11.90;99.90;;;;;;5045222;28;20176;-78
2022/06/15 03:42:14;;;;;;;4.63;2.10;;;11.80;99.90;;;;;;5043477;28;20554;-78
2022/06/15 03:44:40;;;;;;;6.87;2.20;;;11.80;99.90;;;;;;5044246;28;20164;-79
2022/06/15 03:47:24;;;;;;;4.47;2.10;;;11.80;99.90;;;;;;5045028;28;20226;-79
2022/06/15 03:49:53;;;;;;;4.70;2.27;;;11.70;99.90;;;;;;5048436;28;20236;-79
2022/06/15 03:52:22;;;;;;;7.57;2.40;;;11.70;99.90;;;;;;5045957;28;20202;-79
2022/06/15 03:54:48;;;;;;;4.47;2.47;;;11.70;99.90;;;;;;5044643;28;20174;-78
2022/06/15 03:57:16;;;;;;;2.50;1.90;;;11.70;99.90;;;;;;5047380;28;20283;-79
2022/06/15 03:59:42;;;;;;;2.53;1.87;;;11.70;99.90;;;;;;5047006;28;20646;-79
2022/06/15 04:02:08;;;;;;;5.97;2.40;;;11.70;99.90;;;;;;5045713;28;20187;-79
2022/06/15 04:04:33;;;;;;;2.87;2.00;;;11.70;99.90;;;;;;5046915;28;20177;-78
2022/06/15 04:06:59;;;;;;;4.13;1.90;;;11.60;99.90;;;;;;5047021;28;20200;-79
2022/06/15 04:09:26;;;;;;;4.93;2.43;;;11.60;99.90;;;;;;5047031;28;20173;-79
2022/06/15 04:12:01;;;;;;;3.40;2.07;;;11.60;99.90;;;;;;5047083;28;20638;-79
2022/06/15 04:14:28;;;;;;;5.53;2.40;;;11.60;99.90;;;;;;5046759;28;20179;-79
2022/06/15 04:16:53;;;;;;;3.07;2.07;;;11.60;99.90;;;;;;5044138;28;20196;-78
2022/06/15 04:19:31;;;;;;;4.03;1.83;;;11.60;99.90;;;;;;5044869;28;20610;-79
2022/06/15 04:21:57;;;;;;;4.03;2.33;;;11.60;99.90;;;;;;5046446;28;20192;-79
2022/06/15 04:24:27;;;;;;;4.43;2.37;;;11.60;99.90;;;;;;5045517;28;20184;-78
2022/06/15 04:26:53;;;;;;;4.20;2.10;;;11.60;99.90;;;;;;5060760;22;20212;-75
2022/06/15 04:29:20;;;;;;;5.83;2.60;;;11.60;99.90;;;;;;4997609;28;20697;-73
2022/06/15 04:31:46;;;;;;;4.53;2.20;;;11.50;99.90;;;;;;4998391;28;20265;-73
2022/06/15 04:34:12;;;;;;;5.03;2.80;;;11.60;99.90;;;;;;4997805;28;20652;-73
2022/06/15 04:36:40;;;;;;;4.93;2.50;;;11.60;99.90;;;;;;4998884;28;20185;-73
2022/06/15 04:39:08;;;;;;;3.13;2.27;;;11.60;99.90;;;;;;4978433;28;20178;-73
2022/06/15 04:41:36;;;;;;;3.93;1.97;;;11.70;99.90;;;;;;4978085;28;20206;-73
2022/06/15 04:44:02;;;;;;;3.53;2.40;;;11.70;99.90;;;;;;4979206;28;20170;-73
2022/06/15 04:46:28;;;;;;;2.40;2.00;;;11.70;99.90;;;;;;4979019;28;20684;-73
2022/06/15 04:48:54;;;;;;;6.07;2.23;;;11.80;99.90;;;;;;4978936;28;20187;-75
2022/06/15 04:51:23;;;;;;;5.13;2.47;;;11.80;99.90;;;;;;4979158;28;20702;-75
2022/06/15 04:53:50;;;;;;;6.73;2.50;;;11.80;99.90;;;;;;4978270;28;20595;-73
2022/06/15 04:56:16;;;;;;;10.90;2.90;;;11.80;99.90;;;;;;4978132;28;20552;-74
2022/06/15 04:58:43;;;;;;;7.37;3.20;;;11.90;99.90;;;;;;4978977;28;20195;-75
2022/06/15 05:01:10;;;;;;;6.03;3.37;;;11.90;99.90;;;;;;4980117;28;20181;-75
2022/06/15 05:03:37;;;;;;;5.43;2.77;;;12.00;99.90;;;;;;4978753;28;20183;-75
2022/06/15 05:06:31;;;;;;;6.70;2.73;;;12.00;99.90;;;;;;4979428;28;20197;-74
2022/06/15 05:08:57;;;;;;;6.13;3.43;;;12.10;99.90;;;;;;4987237;28;20215;-74
2022/06/15 05:11:23;;;;;;;10.37;3.30;;;12.10;99.90;;;;;;4977938;28;20594;-75
2022/06/15 05:13:48;;;;;;;8.87;3.07;;;12.20;99.90;;;;;;4978468;28;20178;-74
2022/06/15 05:16:14;;;;;;;8.57;3.00;;;12.30;99.90;;;;;;4979014;28;20237;-76
2022/06/15 05:18:39;;;;;;;3.83;2.60;;;12.30;99.90;;;;;;4977764;28;20268;-76
2022/06/15 05:21:05;;;;;;;5.60;3.13;;;12.40;99.90;;;;;;4993705;28;20182;-75
2022/06/15 05:23:31;;;;;;;5.43;2.97;;;12.40;99.90;;;;;;4978323;28;20269;-75
2022/06/15 05:26:00;;;;;;;12.13;4.80;;;12.40;99.90;;;;;;4979391;28;20206;-77
2022/06/15 05:28:26;;;;;;;6.50;2.93;;;12.50;99.90;;;;;;4979521;28;20739;-76
2022/06/15 05:31:01;;;;;;;5.97;3.10;;;12.60;99.90;;;;;;4978910;28;20242;-75
2022/06/15 05:33:27;;;;;;;5.87;3.10;;;12.60;99.90;;;;;;4977743;28;20178;-75
2022/06/15 05:35:52;;;;;;;4.03;2.90;;;12.70;99.90;;;;;;4977714;28;20182;-75
2022/06/15 05:38:18;;;;;;;7.47;4.00;;;12.80;99.90;;;;;;4979060;28;20377;-75
2022/06/15 05:40:43;;;;;;;7.93;3.23;;;12.80;99.90;;;;;;4977605;28;20273;-75
2022/06/15 05:43:09;;;;;;;4.47;3.00;;;12.90;99.90;;;;;;4977271;28;20182;-75
2022/06/15 05:45:34;;;;;;;5.77;3.30;;;13.00;99.90;;;;;;4977077;28;20217;-75
2022/06/15 05:48:00;;;;;;;8.13;3.70;;;13.10;99.90;;;;;;4978232;28;20252;-75
2022/06/15 05:50:25;;;;;;;5.67;3.23;;;13.20;99.90;;;;;;4979159;28;20181;-75
2022/06/15 05:52:51;;;;;;;11.30;3.53;;;13.30;99.90;;;;;;4978684;28;20183;-75
2022/06/15 05:55:16;;;;;;;12.03;4.23;;;13.30;99.90;;;;;;4978601;28;20251;-75
2022/06/15 05:57:42;;;;;;;7.43;3.93;;;13.40;99.90;;;;;;4979870;28;20251;-75
2022/06/15 06:00:09;;;;;;;6.43;3.57;;;13.60;99.90;;;;;;4981161;28;20186;-75
2022/06/15 06:02:35;;;;;;;9.33;3.70;;;13.60;99.90;;;;;;4978376;28;20197;-75
2022/06/15 06:05:00;;;;;;;5.43;3.63;;;13.80;99.90;;;;;;4978837;28;20181;-76
2022/06/15 06:07:26;;;;;;;9.47;3.80;;;13.80;99.90;;;;;;4976633;28;20202;-76
2022/06/15 06:09:51;;;;;;;10.03;3.73;;;13.90;99.90;;;;;;4976338;28;20203;-75
2022/06/15 06:12:17;;;;;;;7.57;3.13;;;14.00;99.90;;;;;;4978143;28;20229;-76
2022/06/15 06:14:43;;;;;;;8.30;4.27;;;14.10;99.90;;;;;;4978665;28;20194;-75
2022/06/15 06:17:09;;;;;;;6.63;3.67;;;14.10;99.90;;;;;;4976861;28;20194;-75
2022/06/15 06:19:34;;;;;;;6.67;3.17;;;14.20;99.90;;;;;;4976609;28;20559;-75
2022/06/15 06:22:00;;;;;;;5.83;3.10;;;14.20;99.90;;;;;;4978028;28;20189;-75
2022/06/15 06:24:26;;;;;;;5.70;3.60;;;14.30;99.90;;;;;;4978052;28;20186;-75
2022/06/15 06:26:58;;;;;;;8.77;3.30;;;14.40;99.90;;;;;;4976621;28;20257;-75
2022/06/15 06:29:24;;;;;;;7.80;3.37;;;14.40;99.90;;;;;;4976910;28;20556;-75
2022/06/15 06:31:50;;;;;;;9.37;3.50;;;14.50;99.90;;;;;;4978318;28;20170;-75
2022/06/15 06:34:15;;;;;;;9.67;3.27;;;14.60;99.90;;;;;;4976974;28;20270;-75
2022/06/15 06:36:44;;;;;;;8.63;4.10;;;14.70;99.90;;;;;;4977948;28;20262;-75
2022/06/15 06:39:14;;;;;;;6.57;2.90;;;14.80;1.00;;;;;;4978109;28;20217;-75
2022/06/15 06:41:41;;;;;;;5.73;3.30;;;14.90;1.00;;;;;;4978307;28;20257;-75
2022/06/15 06:44:07;;;;;;;9.37;3.43;;;15.00;1.00;;;;;;4978040;28;20174;-75
2022/06/15 06:46:34;;;;;;;9.50;2.90;;;15.10;99.90;;;;;;4978213;28;20190;-75
2022/06/15 06:49:00;;;;;;;5.90;2.70;;;15.20;99.90;;;;;;4976508;28;20205;-75
2022/06/15 06:51:26;;;;;;;6.27;3.40;;;15.30;99.90;;;;;;4978533;28;20175;-75
2022/06/15 06:53:51;;;;;;;5.57;3.00;;;15.40;1.00;;;;;;4977879;28;20182;-75
2022/06/15 06:56:17;;;;;;;4.27;3.07;;;15.50;66.10;;;;;;4978381;28;20234;-75
2022/06/15 06:58:43;;;;;;;9.87;3.27;;;15.60;99.90;;;;;;4978107;28;20204;-75
2022/06/15 07:01:08;;;;;;;5.83;2.70;;;15.70;7.20;;;;;;4976847;28;20608;-75
2022/06/15 07:03:34;;;;;;;7.23;3.23;;;15.80;1.00;;;;;;4978184;28;20637;-75
2022/06/15 07:06:02;;;;;;;6.30;2.70;;;15.80;99.90;;;;;;4978689;28;20202;-75
2022/06/15 07:08:27;;;;;;;7.30;2.77;;;16.00;1.00;;;;;;4978591;28;20266;-75
2022/06/15 07:10:53;;;;;;;6.90;3.00;;;16.00;1.00;;;;;;4977899;28;20209;-76
2022/06/15 07:13:18;;;;;;;7.50;2.93;;;16.20;99.90;;;;;;4976972;28;20523;-75
2022/06/15 07:15:44;;;;;;;5.30;2.47;;;16.20;9.60;;;;;;4976798;28;20174;-75
2022/06/15 07:18:09;;;;;;;6.00;2.80;;;16.30;12.40;;;;;;4978017;28;20258;-75
2022/06/15 07:20:36;;;;;;;7.77;2.50;;;16.50;1.00;;;;;;4978582;28;20305;-75
2022/06/15 07:23:01;;;;;;;6.83;2.60;;;16.50;58.00;;;;;;4976871;28;20206;-75
2022/06/15 07:25:27;;;;;;;6.83;2.40;;;16.60;1.00;;;;;;4978515;28;20202;-75
2022/06/15 07:27:53;;;;;;;4.37;2.13;;;16.70;99.90;;;;;;4978583;28;20280;-75
2022/06/15 07:30:23;;;;;;;5.17;2.47;;;16.90;99.90;;;;;;4977063;28;20665;-75
2022/06/15 07:32:49;;;;;;;7.30;2.37;;;17.00;9.30;;;;;;4978471;28;20221;-75
2022/06/15 07:35:21;;;;;;;4.83;2.30;;;17.10;1.00;;;;;;4977927;28;20649;-75
2022/06/15 07:37:47;;;;;;;9.13;2.30;;;17.10;99.90;;;;;;4979250;28;20194;-75
2022/06/15 07:40:14;;;;;;;3.50;1.80;;;17.20;1.00;;;;;;4979167;28;20547;-75
2022/06/15 07:42:40;;;;;;;7.83;2.20;;;17.40;1.00;;;;;;4978481;28;20201;-75
2022/06/15 07:45:07;;;;;;;6.70;1.80;;;17.30;1.00;;;;;;4979664;28;20305;-75
2022/06/15 07:50:17;;;;;;;6.40;2.50;;;17.40;99.90;;;;;;4979255;28;20173;-75
2022/06/15 07:52:46;;;;;;;5.40;1.93;;;17.50;1.00;;;;;;4979294;28;20257;-74
2022/06/15 07:55:15;;;;;;;7.23;1.93;;;17.60;1.00;;;;;;4978587;28;20582;-75
2022/06/15 07:57:41;;;;;;;5.00;1.80;;;17.60;99.90;;;;;;4978725;28;20190;-75
2022/06/15 08:00:09;;;;;;;7.37;2.60;;;17.80;1.00;;;;;;4978976;28;20175;-75
2022/06/15 08:02:35;;;;;;;4.57;2.30;;;17.90;47.00;;;;;;4979406;28;20174;-75
2022/06/15 08:05:00;;;;;;;6.50;2.07;;;18.00;1.00;;;;;;4977417;28;20185;-75
2022/06/15 08:07:26;;;;;;;7.63;2.37;;;18.20;1.00;;;;;;4979189;28;20199;-75
2022/06/15 08:09:52;;;;;;;6.13;2.20;;;18.20;1.00;;;;;;4978136;28;20183;-75
2022/06/15 08:12:23;;;;;;;4.47;1.70;;;18.40;99.90;;;;;;4977783;28;20182;-75
2022/06/15 08:14:58;;;;;;;6.97;2.17;;;18.50;99.90;;;;;;4979687;28;20158;-75
2022/06/15 08:17:34;;;;;;;5.87;1.80;;;18.70;1.00;;;;;;4979422;28;20196;-75
2022/06/15 08:20:17;;;;;;;4.33;2.20;;;18.70;1.00;;;;;;4977844;28;20177;-75
2022/06/15 08:22:47;;;;;;;7.07;2.17;;;18.90;99.90;;;;;;4977487;28;20605;-75
2022/06/15 08:25:17;;;;;;;4.93;1.70;;;18.90;1.00;;;;;;4979010;28;20190;-75
2022/06/15 08:27:44;;;;;;;5.70;2.33;;;19.10;1.00;;;;;;4979370;28;20222;-75
2022/06/15 08:30:11;;;;;;;6.00;2.03;;;19.20;1.00;;;;;;4977616;28;20538;-76
2022/06/15 08:32:38;;;;;;;7.97;2.10;;;19.30;1.00;;;;;;4982372;28;20181;-75
2022/06/15 08:35:05;;;;;;;4.63;1.80;;;19.50;1.00;;;;;;4982501;28;20218;-75
2022/06/15 08:37:31;;;;;;;3.00;1.70;;;19.60;1.00;;;;;;4981970;28;20221;-76
2022/06/15 08:39:56;;;;;;;3.20;1.70;;;19.60;24.90;;;;;;4981935;28;20644;-75
2022/06/15 08:42:56;;;;;;;2.93;1.63;;;19.70;1.00;;;;;;4981498;28;20186;-75
2022/06/15 08:45:32;;;;;;;9.97;2.00;;;19.70;95.90;;;;;;4994327;28;20217;-75
2022/06/15 08:48:26;;;;;;;7.43;2.30;;;19.80;54.10;;;;;;4980685;28;20220;-75
2022/06/15 08:51:11;;;;;;;5.70;2.10;;;19.90;1.00;;;;;;4982394;28;20170;-75
2022/06/15 08:53:51;;;;;;;6.90;2.10;;;20.00;1.00;;;;;;4981044;28;20181;-75
2022/06/15 08:56:38;;;;;;;7.10;1.60;;;20.10;99.90;;;;;;4981498;28;20178;-75
2022/06/15 08:59:19;;;;;;;5.23;1.90;;;20.20;1.00;;;;;;4980448;28;20269;-75
2022/06/15 09:02:08;;;;;;;1.77;1.10;;;20.30;1.00;;;;;;4980780;28;20213;-76
2022/06/15 09:05:01;;;;;;;3.70;1.73;;;20.50;99.90;;;;;;4981580;28;20185;-75
2022/06/15 09:08:08;;;;;;;5.53;1.87;;;20.60;1.00;;;;;;4981759;28;20574;-76
2022/06/15 09:10:57;;;;;;;4.03;1.70;;;20.70;99.90;;;;;;4976197;28;20182;-76
2022/06/15 09:13:47;;;;;;;4.53;2.00;;;20.80;1.00;;;;;;4979499;28;20249;-76
2022/06/15 09:16:42;;;;;;;6.03;2.00;;;20.90;1.00;;;;;;4980603;28;20166;-73
2022/06/15 09:19:13;;;;;;;6.13;2.00;;;20.90;1.00;;;;;;4981623;28;20206;-75
2022/06/15 09:21:57;;;;;;;8.87;3.17;;;21.00;1.00;;;;;;4979626;28;20178;-75
2022/06/15 09:24:38;;;;;;;5.30;2.30;;;21.00;1.00;;;;;;4981852;28;20162;-76
2022/06/15 09:27:10;;;;;;;4.23;2.50;;;21.10;1.00;;;;;;4979518;28;20218;-76
2022/06/15 09:29:41;;;;;;;4.23;2.00;;;21.20;1.00;;;;;;4979075;28;20182;-76
2022/06/15 09:32:43;;;;;;;6.67;1.87;;;21.20;1.00;;;;;;4981175;28;20190;-75
2022/06/15 09:35:41;;;;;;;12.30;2.00;;;21.30;1.00;;;;;;4959525;28;20186;-76
2022/06/15 09:38:10;;;;;;;2.93;1.80;;;21.40;5.70;;;;;;4969447;28;20576;-75
2022/06/15 09:40:55;;;;;;;10.33;3.70;;;21.50;1.00;;;;;;4980926;28;20258;-74
2022/06/15 09:43:29;;;;;;;8.40;2.60;;;21.70;1.00;;;;;;4980319;28;20181;-74
2022/06/15 09:46:08;;;;;;;6.13;1.97;;;21.70;1.00;;;;;;4980693;28;20277;-75
2022/06/15 09:48:52;;;;;;;5.17;2.27;;;21.80;1.00;;;;;;4980551;28;20194;-74
2022/06/15 09:51:48;;;;;;;4.20;2.00;;;21.90;99.90;;;;;;4980628;28;20155;-75
2022/06/15 09:54:43;;;;;;;8.47;1.73;;;22.00;99.90;;;;;;4978319;28;20163;-75
2022/06/15 09:57:11;;;;;;;9.57;2.37;;;22.00;99.90;;;;;;4980038;28;20230;-74
2022/06/15 09:59:37;;;;;;;5.97;1.63;;;22.10;1.00;;;;;;4979832;28;20185;-75
2022/06/15 10:02:19;;;;;;;4.73;1.80;;;22.10;1.00;;;;;;4980704;28;20178;-75
2022/06/15 10:04:44;;;;;;;4.80;1.80;;;22.20;1.00;;;;;;4980525;28;20692;-75
2022/06/15 10:07:16;;;;;;;5.43;2.10;;;22.30;99.90;;;;;;4994549;28;20292;-75
2022/06/15 10:09:50;;;;;;;10.23;2.00;;;22.40;99.90;;;;;;4979460;28;20168;-75
2022/06/15 10:12:59;;;;;;;4.67;1.77;;;22.40;99.90;;;;;;4979647;28;20163;-74
2022/06/15 10:15:32;;;;;;;9.43;1.90;;;22.50;99.90;;;;;;4977738;28;20178;-75
2022/06/15 10:18:02;;;;;;;3.13;1.70;;;22.50;99.90;;;;;;4978067;28;20222;-74
2022/06/15 10:20:35;;;;;;;4.03;1.80;;;22.60;99.90;;;;;;4978209;28;20170;-75
2022/06/15 10:23:21;;;;;;;5.73;1.60;;;22.60;47.70;;;;;;4977643;28;20178;-75
2022/06/15 10:25:54;;;;;;;9.43;2.30;;;22.60;99.90;;;;;;4978044;28;20194;-76
2022/06/15 10:28:30;;;;;;;4.83;1.50;;;22.70;99.90;;;;;;5030097;23;20212;-93
2022/06/15 10:31:00;;;;;;;4.10;1.57;;;22.80;99.90;;;;;;5067552;28;20192;-93
2022/06/15 10:33:36;;;;;;;5.23;1.53;;;22.90;99.90;;;;;;5053238;28;20196;-93
2022/06/15 10:36:02;;;;;;;2.77;1.43;;;23.00;1.00;;;;;;5053564;28;20173;-93
2022/06/15 10:38:28;;;;;;;5.17;1.67;;;23.00;1.00;;;;;;5052363;28;20180;-93
2022/06/15 10:43:46;;;;;;;7.97;2.10;;;23.10;19.60;;;;;;5052431;22;20235;-77
2022/06/15 10:46:12;;;;;;;7.70;2.20;;;23.20;99.90;;;;;;5037142;28;20200;-77
2022/06/15 10:48:53;;;;;;;6.13;2.30;;;23.20;99.90;;;;;;5038052;28;20180;-77
2022/06/15 10:51:37;;;;;;;4.03;1.70;;;23.40;1.00;;;;;;5038354;28;20567;-77
2022/06/15 10:54:20;;;;;;;4.77;1.90;;;23.50;1.00;;;;;;5037314;28;20243;-77
2022/06/15 11:02:42;;;;;;;4.90;1.70;;;23.60;1.00;;;;;;5037669;28;20314;-77
2022/06/15 11:05:16;;;;;;;5.00;1.77;;;23.60;99.90;;;;;;5037603;28;20180;-77
2022/06/15 11:07:55;;;;;;;7.80;2.27;;;23.70;68.60;;;;;;5035499;28;20186;-78
2022/06/15 11:10:26;;;;;;;5.17;2.07;;;23.70;1.00;;;;;;5040606;28;20157;-78
2022/06/15 11:13:24;;;;;;;6.20;1.70;;;23.70;1.00;;;;;;5036722;28;20183;-78
2022/06/15 11:18:57;;;;;;;4.33;1.80;;;23.80;27.40;;;;;;5040426;28;20271;-77
2022/06/15 11:21:27;;;;;;;4.40;1.60;;;23.90;1.00;;;;;;5036345;28;20175;-78
2022/06/15 11:24:07;;;;;;;5.13;1.80;;;23.90;1.00;;;;;;5038694;28;20172;-78
2022/06/15 11:26:53;;;;;;;4.60;1.67;;;24.00;1.00;;;;;;5036804;28;20196;-78
2022/06/15 11:29:42;;;;;;;4.13;1.50;;;24.00;1.00;;;;;;5038102;28;20238;-78
2022/06/15 11:32:15;;;;;;;4.53;1.70;;;24.00;1.00;;;;;;5036191;28;20160;-77
2022/06/15 11:34:53;;;;;;;4.67;1.53;;;24.20;1.00;;;;;;5033300;28;20619;-77
2022/06/15 11:37:25;;;;;;;3.83;1.50;;;24.20;1.00;;;;;;5036264;28;20214;-77
2022/06/15 11:39:57;;;;;;;5.33;1.47;;;24.20;1.00;;;;;;5036610;28;20172;-77
2022/06/15 11:42:24;;;;;;;4.17;1.97;;;24.40;1.00;;;;;;5036833;28;20258;-77
2022/06/15 11:44:51;;;;;;;3.77;1.73;;;24.40;1.00;;;;;;5036542;28;20173;-77
2022/06/15 11:47:19;;;;;;;6.13;1.53;;;24.50;1.00;;;;;;5036668;28;20200;-77
2022/06/15 11:50:06;;;;;;;6.27;1.83;;;24.40;10.50;;;;;;5035422;28;20271;-77
2022/06/15 11:52:44;;;;;;;4.87;1.77;;;24.50;1.00;;;;;;5036791;28;20226;-77
2022/06/15 11:55:24;;;;;;;3.70;2.03;;;24.50;96.90;;;;;;5037502;28;20637;-77
2022/06/15 11:58:17;;;;;;;4.90;1.42;;;24.50;48.40;;;;;;5036464;28;20188;-76
2022/06/15 12:01:05;;;;;;;3.60;1.65;;;24.70;1.00;;;;;;5012483;28;20275;-76
2022/06/15 12:03:40;;;;;;;8.10;2.53;;;24.60;1.00;;;;;;5040202;28;20149;-77
2022/06/15 12:06:05;;;;;;;4.53;1.45;;;24.60;1.00;;;;;;5040172;28;20253;-77
2022/06/15 12:08:49;;;;;;;5.07;1.67;;;24.50;1.00;;;;;;5043130;28;20187;-77
2022/06/15 12:14:43;;;;;;;2.87;1.57;;;24.60;1.00;;;;;;5045750;28;20179;-78
2022/06/15 12:17:31;;;;;;;2.17;1.47;;;24.70;1.00;;;;;;5045144;28;20188;-77
2022/06/15 12:20:18;;;;;;;2.53;1.40;;;24.70;1.00;;;;;;5043429;28;20157;-77
2022/06/15 12:23:03;;;;;;;4.20;1.55;;;24.80;1.00;;;;;;5041056;28;20183;-76
2022/06/15 12:25:56;;;;;;;3.67;1.50;;;24.90;1.00;;;;;;5040398;28;20242;-77
2022/06/15 12:28:45;;;;;;;12.32;1.83;;;24.90;1.00;;;;;;5039544;28;20581;-77
2022/06/15 12:31:38;;;;;;;3.40;1.42;;;25.10;1.00;;;;;;5042089;28;20611;-77
2022/06/15 12:34:20;;;;;;;5.72;1.63;;;25.10;1.00;;;;;;5039061;28;20246;-77
2022/06/15 12:37:09;;;;;;;5.93;1.83;;;25.10;1.00;;;;;;5036542;28;20222;-77
2022/06/15 12:40:02;;;;;;;3.35;1.67;;;25.20;1.00;;;;;;5037127;28;20551;-77
2022/06/15 12:42:28;;;;;;;5.38;2.03;;;25.20;1.00;;;;;;5039045;28;20188;-77
2022/06/15 12:45:01;;;;;;;4.07;1.27;;;25.30;1.00;;;;;;5040063;28;20532;-77
2022/06/15 12:47:28;;;;;;;3.28;1.23;;;25.40;1.00;;;;;;5041430;28;20558;-77
2022/06/15 12:50:09;;;;;;;3.88;1.60;;;25.50;1.00;;;;;;5038747;28;20176;-77
2022/06/15 12:53:02;;;;;;;3.70;1.27;;;25.60;1.00;;;;;;5041312;28;20206;-77
2022/06/15 12:55:49;;;;;;;3.90;2.05;;;25.60;1.00;;;;;;5040083;28;20255;-77
2022/06/15 12:58:40;;;;;;;4.43;1.83;;;25.70;1.00;;;;;;5039043;28;20207;-77
2022/06/15 13:01:14;;;;;;;3.38;1.50;;;25.60;1.00;;;;;;5038469;28;20188;-77
2022/06/15 13:04:04;;;;;;;7.57;2.13;;;25.80;1.00;;;;;;5038259;28;20206;-77
2022/06/15 13:06:35;;;;;;;2.95;1.48;;;25.80;1.00;;;;;;5040822;28;20188;-78
2022/06/15 13:09:15;;;;;;;6.05;1.80;;;25.80;1.00;;;;;;5039648;28;20231;-77
2022/06/15 13:11:46;;;;;;;2.85;1.60;;;25.90;1.00;;;;;;5038720;28;20233;-77
2022/06/15 13:14:21;;;;;;;7.05;1.67;;;25.90;1.00;;;;;;5040509;28;20165;-78
2022/06/15 13:17:05;;;;;;;4.50;1.77;;;26.10;1.00;;;;;;5039219;28;20163;-77
2022/06/15 13:19:40;;;;;;;3.10;1.50;;;26.20;1.00;;;;;;5038353;28;20618;-77
2022/06/15 13:22:08;;;;;;;3.08;1.70;;;26.20;1.00;;;;;;5038952;28;20171;-77
2022/06/15 13:24:54;;;;;;;1.63;1.25;;;26.30;1.00;;;;;;5021994;28;20187;-77
2022/06/15 13:27:37;;;;;;;3.92;1.98;;;26.30;1.00;;;;;;5038416;28;20211;-77
2022/06/15 13:30:31;;;;;;;4.70;1.52;;;26.40;1.00;;;;;;5038003;28;20250;-77
2022/06/15 13:33:09;;;;;;;3.03;1.58;;;26.50;1.00;;;;;;5038887;28;20172;-77
2022/06/15 13:35:43;;;;;;;7.50;1.80;;;26.60;1.00;;;;;;5037704;28;20171;-77
2022/06/15 13:38:22;;;;;;;6.30;1.90;;;26.70;1.00;;;;;;5038601;28;20626;-77